Time;durP1;ratioP1;P1;durP2;ratioP2;P2;SDS_P1;SDS_P2;PMS_P1;PMS_P2;Temp;Humidity;BMP_temperature;BMP_pressure;BME280_temperature;BME280_humidity;BME280_pressure;Samples;Min_cycle;Max_cycle;Signal;HPM_P1;HPM_P2
2022/06/06 00:00:22;;;;;;;10.27;5.38;;;16.40;77.10;;;12.72;94.93;95843.00;5013160;28;20092;-54
2022/06/06 00:02:50;;;;;;;12.65;5.38;;;16.30;76.90;;;12.70;94.57;95834.44;5011613;28;20029;-52
2022/06/06 00:05:19;;;;;;;13.38;6.70;;;16.30;76.90;;;12.67;94.86;95832.31;5011879;28;20385;-55
2022/06/06 00:07:53;;;;;;;10.55;5.97;;;16.30;77.00;;;12.66;94.73;95840.59;5012586;28;20125;-53
2022/06/06 00:10:19;;;;;;;8.98;5.55;;;16.30;77.00;;;12.64;94.44;95832.84;5013035;28;20105;-51
2022/06/06 00:12:51;;;;;;;14.52;5.55;;;16.30;76.80;;;12.58;93.99;95839.28;5011656;28;20117;-53
2022/06/06 00:15:22;;;;;;;11.87;6.40;;;16.20;77.70;;;12.52;94.18;95834.22;5011706;28;20028;-53
2022/06/06 00:17:49;;;;;;;14.50;6.50;;;16.10;76.70;;;12.46;93.86;95834.22;5012629;28;20122;-53
2022/06/06 00:20:21;;;;;;;10.88;6.38;;;16.10;76.70;;;12.40;94.08;95824.63;5013060;28;20022;-51
2022/06/06 13:47:59;;;;;;;4.10;3.80;;;37.00;33.30;;;30.41;34.27;95598.13;5140404;27;20374;-52
2022/06/06 13:51:29;;;;;;;3.95;3.60;;;37.10;30.90;;;30.87;32.77;95592.59;5078707;28;20078;-52
2022/06/06 13:54:24;;;;;;;6.30;3.80;;;37.80;29.70;;;30.98;34.11;95581.56;5109301;28;20123;-50
2022/06/06 13:57:15;;;;;;;4.78;4.38;;;38.40;29.10;;;30.85;33.47;95581.19;5092051;28;20078;-53
2022/06/06 14:00:08;;;;;;;6.90;4.25;;;39.30;28.10;;;31.04;32.76;95579.97;5108892;28;20038;-56
2022/06/06 14:03:14;;;;;;;3.97;3.58;;;40.00;27.10;;;31.34;32.28;95585.03;5108368;28;20050;-55
2022/06/06 14:06:23;;;;;;;3.65;3.45;;;40.30;26.60;;;31.68;32.29;95578.16;5088743;28;20032;-55
2022/06/06 14:08:59;;;;;;;4.68;4.10;;;40.50;26.60;;;31.65;31.92;95574.25;5096835;28;20111;-54
2022/06/06 14:12:21;;;;;;;5.00;4.60;;;41.10;25.80;;;31.91;31.23;95570.19;5073667;28;20028;-55
2022/06/06 14:14:53;;;;;;;3.70;3.50;;;41.50;25.40;;;31.25;32.08;95562.63;5108836;28;20024;-55
2022/06/06 14:17:29;;;;;;;4.35;3.63;;;41.10;25.20;;;31.28;32.58;95563.81;5072702;28;20039;-54
2022/06/06 14:20:39;;;;;;;4.90;4.40;;;40.50;25.20;;;31.70;32.47;95554.56;5087887;28;20125;-53
2022/06/06 14:23:26;;;;;;;5.45;3.78;;;40.90;25.50;;;31.33;32.45;95557.88;5106277;28;20119;-51
2022/06/06 14:26:05;;;;;;;4.68;4.00;;;40.80;25.30;;;31.11;33.45;95554.41;5102419;28;20055;-55
2022/06/06 14:28:43;;;;;;;5.18;3.72;;;40.50;25.20;;;30.94;33.12;95549.78;5087930;28;20062;-52
2022/06/06 14:31:48;;;;;;;4.65;3.45;;;40.00;25.40;;;31.29;32.92;95557.09;5071088;28;20438;-50
2022/06/06 14:34:44;;;;;;;5.20;3.67;;;39.60;25.80;;;31.50;33.00;95550.75;5087862;28;20028;-52
2022/06/06 14:37:19;;;;;;;4.80;3.88;;;39.20;26.20;;;31.54;33.02;95535.00;5100400;28;20491;-52
2022/06/06 14:40:00;;;;;;;5.20;4.07;;;39.10;26.50;;;31.54;32.29;95554.25;5103332;28;20066;-48
2022/06/06 14:42:28;;;;;;;4.63;4.20;;;39.40;26.30;;;31.71;32.84;95544.31;5102390;28;20034;-50
2022/06/06 14:45:09;;;;;;;3.97;3.40;;;39.70;26.30;;;31.67;31.10;95541.59;5105518;28;20496;-49
2022/06/06 14:47:54;;;;;;;9.93;3.73;;;39.50;25.90;;;31.48;32.20;95531.09;5085562;28;20031;-48
2022/06/06 14:53:33;;;;;;;3.30;3.00;;;38.90;26.20;;;30.63;33.45;95541.94;5088584;28;20038;-48
2022/06/06 14:56:29;;;;;;;6.32;3.40;;;38.40;26.40;;;30.05;34.01;95543.13;5102847;28;20386;-47
2022/06/06 14:59:21;;;;;;;4.18;3.78;;;38.10;26.20;;;30.43;33.17;95547.09;5069518;28;20097;-49
2022/06/06 15:01:50;;;;;;;4.80;4.22;;;38.30;26.30;;;31.13;33.59;95535.56;5086067;28;20038;-49
2022/06/06 15:04:24;;;;;;;4.97;4.57;;;39.50;26.20;;;31.14;31.87;95533.59;5071390;28;20032;-54
2022/06/06 15:06:59;;;;;;;5.63;4.25;;;40.90;24.90;;;31.79;31.21;95535.63;5075430;28;20442;-51
2022/06/06 15:10:00;;;;;;;4.68;4.32;;;42.50;24.20;;;32.13;30.89;95526.75;5075830;22;20210;-55
2022/06/06 15:12:27;;;;;;;4.47;4.07;;;42.40;23.80;;;32.02;30.27;95537.06;5071533;28;20039;-55
2022/06/06 15:15:05;;;;;;;3.60;3.30;;;42.40;23.40;;;31.85;30.22;95529.69;5055947;28;20029;-57
2022/06/06 15:17:35;;;;;;;4.75;4.22;;;42.20;23.40;;;32.01;30.91;95530.00;5072770;28;20035;-57
2022/06/06 15:20:27;;;;;;;3.88;3.58;;;42.00;23.40;;;31.52;31.60;95515.34;5085761;28;20035;-58
2022/06/06 15:23:32;;;;;;;3.40;3.10;;;40.90;23.70;;;30.80;35.46;95514.84;5093643;28;20157;-57
2022/06/06 15:26:10;;;;;;;4.85;3.75;;;40.10;24.40;;;30.89;33.35;95512.44;5092218;28;20386;-57
2022/06/06 15:29:08;;;;;;;3.80;3.50;;;40.20;24.90;;;30.78;32.18;95518.00;5078927;28;20055;-58
2022/06/06 15:31:40;;;;;;;3.47;3.17;;;40.30;24.70;;;30.79;33.62;95519.56;5076682;28;20402;-55
2022/06/06 15:34:36;;;;;;;4.30;3.75;;;39.80;25.00;;;30.86;34.98;95516.78;5070401;28;20058;-57
2022/06/06 15:37:13;;;;;;;5.47;4.63;;;40.60;24.90;;;30.78;33.73;95514.47;5083298;28;20103;-56
2022/06/06 15:40:14;;;;;;;5.85;4.05;;;41.50;24.50;;;31.22;31.97;95507.63;5080619;28;20024;-56
2022/06/06 15:42:53;;;;;;;4.07;3.20;;;42.10;23.60;;;31.18;32.21;95509.59;5071884;28;20501;-56
2022/06/06 15:46:19;;;;;;;3.67;3.38;;;40.80;24.10;;;30.59;34.67;95508.19;5083203;28;20042;-58
2022/06/06 15:48:56;;;;;;;3.67;3.38;;;39.60;25.20;;;30.38;34.32;95502.75;5078820;28;20025;-58
2022/06/06 15:51:52;;;;;;;4.57;3.10;;;38.80;25.70;;;30.21;34.83;95504.34;5066084;28;20056;-57
2022/06/06 15:54:48;;;;;;;4.43;4.03;;;38.50;26.00;;;30.14;33.82;95501.53;5065495;28;20036;-56
2022/06/06 15:57:45;;;;;;;5.68;4.15;;;39.00;25.60;;;30.56;32.67;95497.22;5068364;28;20513;-54
2022/06/06 16:00:24;;;;;;;4.15;3.80;;;40.30;24.90;;;30.88;33.61;95488.91;5067022;28;20064;-57
2022/06/06 16:03:38;;;;;;;4.57;3.67;;;41.30;24.20;;;31.05;31.41;95492.75;5067889;28;20029;-56
2022/06/06 16:06:12;;;;;;;5.30;4.20;;;41.60;23.80;;;31.74;30.06;95491.22;5067200;28;20067;-57
2022/06/06 16:09:06;;;;;;;4.88;4.55;;;43.70;22.60;;;32.42;30.37;95493.44;5065879;28;20032;-58
2022/06/06 16:12:19;;;;;;;9.20;5.03;;;45.30;21.80;;;32.65;31.36;95501.09;5066967;28;20032;-55
2022/06/06 16:15:25;;;;;;;4.60;4.30;;;45.90;21.50;;;32.56;31.93;95498.03;4985577;28;20030;-57
2022/06/06 16:18:12;;;;;;;7.18;4.72;;;45.10;21.80;;;31.90;32.25;95493.47;4971198;28;20030;-58
2022/06/06 16:20:53;;;;;;;4.30;4.00;;;43.90;22.10;;;31.80;31.83;95486.84;5053552;28;20040;-58
2022/06/06 16:23:35;;;;;;;4.15;3.85;;;43.10;22.40;;;31.88;30.95;95484.84;5088501;28;20028;-58
2022/06/06 16:26:18;;;;;;;5.65;3.72;;;42.70;22.50;;;31.67;30.55;95491.28;5091170;28;20511;-58
2022/06/06 16:29:12;;;;;;;4.35;3.38;;;42.20;22.40;;;31.27;32.59;95479.69;5091331;28;20020;-58
2022/06/06 16:31:42;;;;;;;4.45;4.00;;;41.70;23.00;;;31.03;31.83;95473.91;5091185;28;20113;-58
2022/06/06 16:34:36;;;;;;;6.00;4.45;;;42.50;22.40;;;31.49;32.52;95477.63;5074593;28;20031;-58
2022/06/06 16:37:13;;;;;;;6.75;5.30;;;44.00;21.90;;;31.87;32.97;95480.50;5092405;28;20028;-58
2022/06/06 16:39:54;;;;;;;6.10;5.60;;;45.70;21.10;;;32.10;33.07;95477.22;5091113;28;20042;-58
2022/06/06 16:49:02;;;;;;;6.82;6.43;;;47.60;20.20;;;32.37;31.79;95474.59;5061869;28;20067;-58
2022/06/06 16:51:57;;;;;;;6.18;5.68;;;48.40;20.00;;;32.39;31.96;95478.50;5058701;28;20127;-57
2022/06/06 16:54:43;;;;;;;6.80;6.30;;;49.00;19.30;;;32.28;32.50;95477.03;5072250;28;20025;-59
2022/06/06 16:57:21;;;;;;;5.00;4.60;;;49.00;18.90;;;32.20;31.96;95474.34;5071662;28;20031;-58
2022/06/06 17:00:25;;;;;;;8.18;4.97;;;48.30;19.10;;;31.60;32.96;95477.56;5070392;28;20059;-58
2022/06/06 17:03:23;;;;;;;5.32;4.82;;;47.40;19.50;;;30.84;34.38;95480.66;5071701;28;20099;-58
2022/06/06 17:08:42;;;;;;;5.80;4.88;;;47.00;19.50;;;30.72;34.39;95477.53;5070811;28;20110;-58
2022/06/06 17:11:19;;;;;;;4.65;4.15;;;47.00;19.20;;;30.14;34.74;95479.56;5071504;28;20049;-58
2022/06/06 17:13:57;;;;;;;6.78;4.22;;;45.30;19.60;;;29.73;36.26;95477.22;5070243;28;20024;-58
2022/06/06 17:16:35;;;;;;;5.68;3.83;;;43.00;21.20;;;28.94;37.59;95476.22;5070504;28;20103;-57
2022/06/06 17:19:12;;;;;;;4.03;3.58;;;41.00;22.60;;;28.37;39.27;95480.19;5071199;28;20371;-57
2022/06/06 17:21:50;;;;;;;4.25;3.85;;;39.30;24.00;;;27.77;40.01;95482.47;5071356;28;20029;-54
2022/06/06 17:24:36;;;;;;;4.70;3.35;;;37.90;25.00;;;27.24;40.99;95472.59;5070088;28;20406;-57
2022/06/06 17:27:27;;;;;;;5.18;3.05;;;36.60;26.20;;;26.93;41.75;95485.47;5071086;28;20044;-57
2022/06/06 17:30:27;;;;;;;3.55;3.25;;;35.50;27.10;;;26.20;43.08;95475.88;5071215;28;20525;-56
2022/06/06 17:33:02;;;;;;;4.35;2.95;;;34.40;28.30;;;25.87;43.56;95471.88;5071947;28;20040;-56
2022/06/06 17:36:01;;;;;;;4.93;3.13;;;33.50;29.10;;;25.54;45.04;95472.44;5071271;28;20033;-54
2022/06/06 17:38:46;;;;;;;5.53;2.90;;;32.60;30.00;;;25.29;45.49;95475.53;5069792;28;20093;-55
2022/06/06 17:41:18;;;;;;;6.22;3.50;;;31.90;31.20;;;25.03;45.83;95475.41;5071050;28;20029;-54
2022/06/06 17:44:16;;;;;;;3.45;3.15;;;31.30;32.10;;;24.87;46.03;95475.47;5069898;28;20024;-57
2022/06/06 17:47:03;;;;;;;4.97;2.85;;;30.80;32.90;;;24.66;47.07;95470.38;5071163;28;20029;-56
2022/06/06 17:49:46;;;;;;;5.85;2.90;;;30.30;33.50;;;24.54;46.98;95476.75;5063307;28;20419;-57
2022/06/06 17:52:26;;;;;;;3.17;2.60;;;29.90;34.10;;;24.40;47.13;95476.41;5079765;28;20024;-54
2022/06/06 17:55:14;;;;;;;4.93;2.97;;;29.70;34.60;;;24.16;47.29;95482.88;5091388;28;20103;-56
2022/06/06 17:57:46;;;;;;;5.65;3.10;;;29.40;35.40;;;23.90;48.30;95486.94;5091333;28;20124;-56
2022/06/06 18:01:09;;;;;;;3.92;2.78;;;29.00;35.70;;;23.61;48.60;95490.88;5090247;28;20063;-56
2022/06/06 18:04:15;;;;;;;4.32;2.85;;;28.80;36.40;;;23.46;49.69;95497.09;5091484;28;20090;-57
2022/06/06 18:07:02;;;;;;;7.28;2.42;;;28.40;37.00;;;23.24;49.79;95495.72;5089837;28;20073;-52
2022/06/06 18:10:15;;;;;;;3.47;3.17;;;28.10;37.50;;;23.12;50.71;95498.50;5090879;28;20058;-56
2022/06/06 18:13:16;;;;;;;2.45;2.25;;;27.80;38.40;;;22.72;51.39;95500.13;5025007;28;20404;-56
2022/06/06 18:16:00;;;;;;;4.93;2.30;;;27.50;39.00;;;22.63;50.68;95494.81;5070848;28;20553;-56
2022/06/06 18:18:43;;;;;;;3.28;2.53;;;27.20;39.20;;;22.51;51.41;95500.28;5071062;28;20395;-53
2022/06/06 18:21:30;;;;;;;5.22;2.47;;;27.00;39.70;;;22.37;52.07;95506.06;5069792;28;20047;-53
2022/06/06 18:24:25;;;;;;;2.80;2.17;;;26.70;40.20;;;22.25;51.45;95508.81;5053212;28;20483;-56
2022/06/06 18:27:02;;;;;;;3.15;2.20;;;26.50;40.50;;;22.03;51.93;95499.19;5058980;28;20451;-57
2022/06/06 18:29:34;;;;;;;3.03;2.20;;;26.30;40.60;;;21.99;52.04;95500.97;5069572;28;20032;-57
2022/06/06 18:32:17;;;;;;;4.07;2.40;;;26.10;40.80;;;21.89;52.81;95507.66;5070607;28;20082;-57
2022/06/06 18:35:02;;;;;;;2.45;2.13;;;26.00;41.30;;;21.74;53.08;95511.03;5062734;28;20094;-55
2022/06/06 18:37:38;;;;;;;5.05;2.50;;;25.80;41.60;;;21.61;52.71;95512.94;5053443;28;20032;-57
2022/06/06 18:40:41;;;;;;;2.72;2.30;;;25.60;41.70;;;21.45;53.19;95512.78;5073643;28;20024;-56
2022/06/06 18:43:33;;;;;;;4.40;1.98;;;25.40;42.20;;;21.27;53.69;95517.56;5073577;28;20024;-54
2022/06/06 18:46:16;;;;;;;3.72;2.20;;;25.20;42.40;;;21.10;54.47;95516.94;5092969;28;20028;-57
2022/06/06 18:49:00;;;;;;;3.80;1.85;;;25.00;42.90;;;20.92;54.95;95514.38;5110016;28;20534;-56
2022/06/06 18:51:47;;;;;;;3.00;2.10;;;24.80;43.30;;;20.78;55.06;95519.31;5065488;28;20044;-55
2022/06/06 18:54:24;;;;;;;6.85;2.58;;;24.60;43.60;;;20.65;55.32;95514.94;5072870;28;20025;-53
2022/06/06 18:56:52;;;;;;;4.53;2.45;;;24.40;43.80;;;20.55;55.53;95522.31;5072791;28;20036;-56
2022/06/06 18:59:52;;;;;;;2.65;1.90;;;24.30;44.00;;;20.32;55.91;95511.00;5065346;28;20028;-57
2022/06/06 19:02:39;;;;;;;4.03;2.50;;;24.10;44.50;;;20.30;56.38;95528.66;5092687;28;20557;-56
2022/06/06 19:05:16;;;;;;;5.55;2.45;;;23.90;44.80;;;20.18;56.81;95532.09;5094328;28;20054;-55
2022/06/06 19:08:02;;;;;;;3.10;2.22;;;23.80;45.00;;;20.06;57.20;95524.69;5092793;28;20028;-52
2022/06/06 19:10:45;;;;;;;5.38;2.03;;;23.70;45.40;;;19.97;57.24;95520.44;5093889;28;20491;-51
2022/06/06 19:13:26;;;;;;;;;;;23.50;45.70;;;19.88;57.67;95531.28;5070800;28;20036;-54
2022/06/06 19:16:25;;;;;;;4.22;1.92;;;23.40;45.20;;;19.81;58.18;95531.00;5073955;28;19916;-56
2022/06/06 19:18:51;;;;;;;2.95;2.20;;;23.30;45.60;;;19.71;58.50;95524.06;5049491;28;20034;-56
2022/06/06 19:21:25;;;;;;;3.72;1.98;;;23.20;46.00;;;19.61;58.36;95527.06;5072410;28;20082;-56
2022/06/06 19:24:04;;;;;;;2.55;2.08;;;23.10;46.50;;;19.55;58.38;95525.66;5073850;28;20024;-57
2022/06/06 19:27:22;;;;;;;3.80;2.03;;;23.10;46.80;;;19.48;58.31;95530.75;5072611;28;20034;-54
2022/06/06 19:29:48;;;;;;;4.15;2.03;;;23.00;47.00;;;19.45;58.05;95536.81;5073062;28;20032;-56
2022/06/06 19:32:21;;;;;;;5.80;2.15;;;22.90;46.90;;;19.37;57.88;95524.94;5058832;28;20325;-58
2022/06/06 19:34:58;;;;;;;;;;;22.90;47.20;;;19.42;57.45;95549.03;5093017;28;20113;-58
2022/06/06 19:37:36;;;;;;;4.50;2.20;;;22.80;46.80;;;19.35;57.10;95541.44;5077337;28;20350;-58
2022/06/06 19:40:17;;;;;;;2.28;1.85;;;22.80;46.90;;;19.41;56.69;95552.88;5071956;28;20032;-58
2022/06/06 19:43:05;;;;;;;4.80;2.10;;;22.80;46.90;;;19.36;56.73;95553.81;5046147;28;20078;-57
2022/06/06 19:45:56;;;;;;;2.08;1.63;;;22.80;47.20;;;19.37;56.13;95558.13;5069222;28;20029;-57
2022/06/06 19:48:41;;;;;;;4.05;1.83;;;22.80;47.10;;;19.35;56.13;95551.44;5063987;28;20328;-55
2022/06/06 19:51:31;;;;;;;2.97;1.88;;;22.70;47.00;;;19.34;56.49;95557.97;5070999;28;20035;-54
2022/06/06 19:54:39;;;;;;;3.05;1.70;;;22.70;47.10;;;19.33;56.44;95559.84;5065869;28;20033;-57
2022/06/06 19:57:19;;;;;;;2.17;1.98;;;22.70;47.10;;;19.35;56.45;95556.84;5030025;28;20033;-58
2022/06/06 20:00:00;;;;;;;3.40;1.90;;;22.70;47.10;;;19.35;56.03;95562.25;5069492;28;20033;-57
2022/06/06 20:02:39;;;;;;;4.20;1.92;;;22.70;47.00;;;19.33;58.49;95553.66;5040381;28;20031;-58
2022/06/06 20:05:36;;;;;;;1.80;1.70;;;22.70;47.40;;;19.32;57.34;95563.69;5059759;28;20360;-58
2022/06/06 20:08:27;;;;;;;3.90;1.95;;;22.70;47.70;;;19.32;57.32;95568.28;5033598;28;20035;-58
2022/06/06 20:11:18;;;;;;;3.70;1.90;;;22.60;47.60;;;19.21;56.89;95561.63;5050214;28;20045;-55
2022/06/06 20:14:04;;;;;;;6.13;2.78;;;22.60;47.70;;;19.24;62.46;95575.31;5045756;28;20021;-57
2022/06/06 20:16:40;;;;;;;8.10;2.47;;;22.60;48.50;;;19.11;64.68;95574.34;5051275;28;20495;-57
2022/06/06 20:19:42;;;;;;;3.97;2.40;;;22.40;49.50;;;18.94;64.58;95574.34;5049193;28;20041;-55
2022/06/06 20:22:32;;;;;;;3.10;2.67;;;22.10;50.30;;;18.73;67.18;95571.50;5043009;28;20049;-55
2022/06/06 20:25:40;;;;;;;4.40;2.78;;;21.80;51.20;;;18.48;69.67;95576.50;5067997;28;20025;-56
2022/06/06 20:28:12;;;;;;;9.23;3.03;;;21.60;52.40;;;18.24;71.85;95570.75;5051250;28;20032;-57
2022/06/06 20:34:17;;;;;;;4.00;3.10;;;21.10;53.80;;;17.72;73.74;95586.69;5065522;28;20043;-56
2022/06/06 20:36:52;;;;;;;3.67;2.90;;;21.00;53.80;;;17.53;74.30;95601.16;5037279;28;20029;-57
2022/06/06 20:39:37;;;;;;;8.98;3.08;;;20.80;54.80;;;17.29;76.00;95622.22;5031039;28;20056;-56
2022/06/06 20:42:15;;;;;;;6.70;3.17;;;20.70;55.60;;;17.15;75.29;95634.97;5035641;28;20030;-58
2022/06/06 20:44:47;;;;;;;4.30;2.72;;;20.50;56.00;;;17.14;76.60;95636.03;5028470;28;20029;-57
2022/06/06 20:47:25;;;;;;;5.75;3.78;;;20.40;56.40;;;17.00;78.23;95628.81;5027339;28;20034;-57
2022/06/06 20:50:27;;;;;;;8.63;3.97;;;20.30;57.00;;;16.69;79.86;95609.06;5028033;28;20060;-58
2022/06/06 20:53:01;;;;;;;7.97;3.97;;;20.10;57.80;;;16.57;79.66;95613.03;5021787;28;20028;-57
2022/06/06 20:55:31;;;;;;;4.10;3.70;;;20.00;58.30;;;16.57;80.90;95609.56;5039224;28;20045;-56
2022/06/06 20:58:02;;;;;;;6.53;4.15;;;19.90;58.50;;;16.55;80.58;95604.50;5026370;28;20506;-56
2022/06/06 21:00:31;;;;;;;6.63;4.38;;;19.80;59.00;;;16.47;80.95;95607.88;5021306;28;20021;-55
2022/06/06 21:02:58;;;;;;;6.05;4.75;;;19.70;59.90;;;16.38;81.63;95607.00;5029892;28;20025;-54
2022/06/06 21:05:29;;;;;;;11.25;4.93;;;19.70;59.60;;;16.31;81.87;95617.38;5028626;28;20029;-56
2022/06/06 21:07:55;;;;;;;10.20;5.20;;;19.60;60.00;;;16.22;82.71;95625.31;5044215;28;20092;-57
2022/06/06 21:10:30;;;;;;;10.85;5.13;;;19.60;60.10;;;16.18;83.97;95651.22;5042318;22;20054;-47
2022/06/06 21:13:07;;;;;;;7.30;4.88;;;19.50;60.70;;;16.12;84.74;95649.72;4976705;28;20040;-47
2022/06/06 21:15:33;;;;;;;5.43;4.65;;;19.50;61.80;;;16.13;85.00;95649.41;4976278;28;20113;-51
2022/06/06 21:18:07;;;;;;;6.00;4.40;;;19.50;61.70;;;16.11;84.62;95634.69;5009105;28;20046;-46
2022/06/06 21:20:52;;;;;;;10.23;5.00;;;19.50;62.40;;;16.09;84.74;95651.09;5012886;28;20034;-48
2022/06/06 21:23:25;;;;;;;10.05;5.68;;;19.40;62.70;;;16.07;85.10;95647.13;4979397;28;20041;-48
2022/06/06 21:25:50;;;;;;;;;;;19.30;62.60;;;15.99;85.57;95650.50;4995525;28;20033;-46
2022/06/06 21:28:16;;;;;;;6.15;4.95;;;19.30;61.30;;;15.98;85.14;95660.44;4992234;28;19917;-48
2022/06/06 21:30:43;;;;;;;8.02;5.47;;;19.30;61.70;;;15.93;85.73;95665.91;4974925;28;20066;-46
2022/06/06 21:33:09;;;;;;;10.55;6.38;;;19.30;62.30;;;15.86;85.34;95660.94;4994982;28;20120;-47
2022/06/06 21:35:35;;;;;;;11.95;6.32;;;19.20;62.80;;;15.79;85.97;95660.50;4995108;28;20069;-46
2022/06/06 21:38:01;;;;;;;8.25;6.38;;;19.20;63.30;;;15.79;86.02;95665.88;4995062;28;20388;-48
2022/06/06 21:40:27;;;;;;;12.70;5.85;;;19.20;63.60;;;15.75;86.29;95659.50;5012354;28;20029;-51
2022/06/06 21:42:54;;;;;;;9.90;6.47;;;19.10;63.80;;;15.65;86.98;95655.09;5012494;28;20036;-50
2022/06/06 21:45:20;;;;;;;8.63;5.50;;;19.10;64.30;;;15.53;86.74;95653.97;4994715;28;20026;-46
2022/06/06 21:47:48;;;;;;;8.30;6.00;;;19.00;64.60;;;15.54;86.32;95650.97;4994947;28;20447;-51
2022/06/06 21:50:14;;;;;;;8.32;6.30;;;19.00;64.90;;;15.54;86.54;95656.34;4997476;28;20385;-47
2022/06/06 21:52:40;;;;;;;6.97;5.85;;;19.00;64.80;;;15.42;86.84;95647.97;4994915;28;20029;-47
2022/06/06 21:55:07;;;;;;;10.23;7.70;;;18.90;65.20;;;15.33;87.79;95634.41;4994592;28;20053;-46
2022/06/06 21:57:33;;;;;;;8.90;6.90;;;18.90;65.50;;;15.34;87.83;95637.88;5012230;28;20022;-48
2022/06/06 21:59:59;;;;;;;12.18;6.65;;;18.90;65.80;;;15.39;87.46;95635.13;4994814;28;20425;-49
2022/06/06 22:02:25;;;;;;;10.13;6.50;;;18.80;65.90;;;15.39;87.59;95635.13;4985781;28;20062;-50
2022/06/06 22:04:51;;;;;;;19.02;7.68;;;18.80;66.00;;;15.39;87.43;95630.56;5007250;28;20401;-47
2022/06/06 22:07:19;;;;;;;9.38;6.95;;;18.80;66.00;;;15.35;87.61;95626.06;4979627;28;20108;-48
2022/06/06 22:09:45;;;;;;;9.93;7.10;;;18.80;66.40;;;15.35;87.73;95636.78;5015795;28;20057;-46
2022/06/06 22:12:17;;;;;;;10.52;6.70;;;18.80;66.40;;;15.30;88.02;95631.53;5003450;28;20027;-48
2022/06/06 22:14:45;;;;;;;11.90;6.90;;;18.80;66.70;;;15.23;88.17;95629.19;4995616;28;20397;-52
2022/06/06 22:17:11;;;;;;;11.52;7.32;;;18.70;66.80;;;15.20;88.48;95627.13;5016182;28;20034;-51
2022/06/06 22:19:43;;;;;;;9.32;6.68;;;18.70;67.00;;;15.20;88.27;95629.81;4998501;28;20034;-48
2022/06/06 22:22:12;;;;;;;12.23;6.63;;;18.70;67.40;;;15.19;88.63;95630.88;5016019;28;20084;-48
2022/06/06 22:24:42;;;;;;;11.32;7.25;;;18.70;67.40;;;15.21;88.59;95623.34;4998135;28;20563;-48
2022/06/06 22:27:08;;;;;;;9.10;6.72;;;18.70;67.30;;;15.25;88.79;95648.50;4999034;28;20026;-47
2022/06/06 22:29:33;;;;;;;10.55;6.28;;;18.70;67.50;;;15.28;88.24;95629.91;5011847;28;20564;-47
2022/06/06 22:32:02;;;;;;;12.30;6.78;;;18.70;67.50;;;15.28;88.87;95637.97;4998801;28;20363;-49
2022/06/06 22:34:35;;;;;;;12.35;6.57;;;18.70;67.80;;;15.28;88.39;95632.59;5002291;28;20385;-47
2022/06/06 22:37:01;;;;;;;10.60;6.70;;;18.70;68.00;;;15.30;88.38;95634.22;4998071;28;20034;-47
2022/06/06 22:39:31;;;;;;;9.10;7.25;;;18.70;67.70;;;15.30;88.29;95624.25;4991809;28;20120;-49
2022/06/06 22:41:59;;;;;;;9.40;6.75;;;18.70;67.90;;;15.25;88.67;95619.75;5015559;28;20443;-51
2022/06/06 22:44:32;;;;;;;8.23;6.13;;;18.70;68.00;;;15.23;88.21;95610.41;5015604;28;20030;-53
2022/06/06 22:47:01;;;;;;;8.55;6.97;;;18.70;67.80;;;15.22;88.51;95603.47;5012495;28;20034;-49
2022/06/06 22:49:27;;;;;;;8.00;6.63;;;18.70;67.90;;;15.15;88.20;95608.41;4997921;28;20399;-50
2022/06/06 22:51:53;;;;;;;9.18;7.15;;;18.70;68.00;;;15.18;88.31;95605.13;5015301;28;20033;-48
2022/06/06 22:54:20;;;;;;;8.07;6.00;;;18.70;68.00;;;15.15;88.24;95598.47;5015368;28;20018;-50
2022/06/06 22:56:47;;;;;;;7.32;6.55;;;18.70;68.10;;;15.17;87.72;95600.88;4997814;28;20117;-50
2022/06/06 22:59:14;;;;;;;8.27;6.28;;;18.60;68.00;;;15.15;87.97;95595.78;4997775;28;20029;-49
2022/06/06 23:01:43;;;;;;;7.57;6.63;;;18.60;68.10;;;15.13;87.61;95597.16;4997734;28;20419;-50
2022/06/06 23:04:12;;;;;;;7.38;6.20;;;18.60;68.30;;;15.09;88.14;95591.59;5008939;28;20080;-49
2022/06/06 23:06:49;;;;;;;9.80;6.75;;;18.60;68.30;;;15.06;87.90;95592.16;5011164;28;20062;-49
2022/06/06 23:09:15;;;;;;;8.95;6.85;;;18.50;68.30;;;15.05;87.74;95593.28;4997532;28;20026;-50
2022/06/06 23:11:45;;;;;;;10.15;6.50;;;18.50;68.30;;;15.03;87.79;95595.44;5014928;28;20042;-47
2022/06/06 23:14:16;;;;;;;9.68;6.13;;;18.50;68.50;;;15.02;87.78;95593.84;5015122;28;20029;-48
2022/06/06 23:16:45;;;;;;;8.10;6.70;;;18.50;68.50;;;15.01;88.52;95594.91;4997368;28;20037;-48
2022/06/06 23:19:11;;;;;;;9.90;7.93;;;18.50;68.70;;;15.00;88.38;95586.09;5014363;28;20060;-51
2022/06/06 23:21:42;;;;;;;12.18;7.28;;;18.40;68.60;;;15.00;88.55;95585.28;5014920;28;20116;-47
